sensor_id;sensor_type;location;lat;lon;timestamp;pressure;altitude;pressure_sealevel;temperature;humidity
6899;BME280;3488;42.616;23.350;2023-01-29T00:01:15;61940.06;;;-0.58;100.00
6899;BME280;3488;42.616;23.350;2023-01-29T00:03:42;61934.50;;;-0.61;100.00
6899;BME280;3488;42.616;23.350;2023-01-29T00:06:09;61937.56;;;-0.58;100.00
6899;BME280;3488;42.616;23.350;2023-01-29T00:08:38;61933.47;;;-0.62;100.00
6899;BME280;3488;42.616;23.350;2023-01-29T00:11:07;61945.72;;;-0.52;100.00
6899;BME280;3488;42.616;23.350;2023-01-29T00:13:34;61946.19;;;-0.52;100.00
6899;BME280;3488;42.616;23.350;2023-01-29T00:16:02;61931.81;;;-0.68;100.00
6899;BME280;3488;42.616;23.350;2023-01-29T00:18:30;61921.63;;;-0.76;100.00
6899;BME280;3488;42.616;23.350;2023-01-29T00:20:57;61910.38;;;-0.87;100.00
6899;BME280;3488;42.616;23.350;2023-01-29T00:23:24;61890.47;;;-1.04;100.00
6899;BME280;3488;42.616;23.350;2023-01-29T00:25:52;61877.59;;;-1.19;100.00
6899;BME280;3488;42.616;23.350;2023-01-29T00:28:19;61877.59;;;-1.19;100.00
6899;BME280;3488;42.616;23.350;2023-01-29T00:30:46;61883.75;;;-1.13;100.00
6899;BME280;3488;42.616;23.350;2023-01-29T00:33:13;61882.75;;;-1.14;100.00
6899;BME280;3488;42.616;23.350;2023-01-29T00:35:41;61873.06;;;-1.21;100.00
6899;BME280;3488;42.616;23.350;2023-01-29T00:38:08;61873.56;;;-1.21;100.00
6899;BME280;3488;42.616;23.350;2023-01-29T00:40:38;61874.03;;;-1.23;100.00
6899;BME280;3488;42.616;23.350;2023-01-29T00:43:24;61876.53;;;-1.23;100.00
6899;BME280;3488;42.616;23.350;2023-01-29T00:46:09;61882.75;;;-1.14;100.00
6899;BME280;3488;42.616;23.350;2023-01-29T00:48:37;61882.66;;;-1.17;100.00
6899;BME280;3488;42.616;23.350;2023-01-29T00:51:04;61870.00;;;-1.24;100.00
6899;BME280;3488;42.616;23.350;2023-01-29T00:53:31;61873.00;;;-1.24;100.00
6899;BME280;3488;42.616;23.350;2023-01-29T00:55:58;61860.28;;;-1.34;100.00
6899;BME280;3488;42.616;23.350;2023-01-29T00:58:26;61862.81;;;-1.31;100.00
6899;BME280;3488;42.616;23.350;2023-01-29T01:00:59;61873.84;;;-1.30;100.00
6899;BME280;3488;42.616;23.350;2023-01-29T01:03:27;61876.59;;;-1.20;100.00
6899;BME280;3488;42.616;23.350;2023-01-29T01:06:03;61886.78;;;-1.12;100.00
6899;BME280;3488;42.616;23.350;2023-01-29T01:08:31;61861.88;;;-1.30;100.00
6899;BME280;3488;42.616;23.350;2023-01-29T01:11:15;61873.44;;;-1.26;100.00
6899;BME280;3488;42.616;23.350;2023-01-29T01:13:44;61863.88;;;-1.30;100.00
6899;BME280;3488;42.616;23.350;2023-01-29T01:16:12;61863.34;;;-1.31;100.00
6899;BME280;3488;42.616;23.350;2023-01-29T01:18:40;61865.31;;;-1.31;100.00
6899;BME280;3488;42.616;23.350;2023-01-29T01:21:07;61855.16;;;-1.39;100.00
6899;BME280;3488;42.616;23.350;2023-01-29T01:23:35;61862.72;;;-1.36;100.00
6899;BME280;3488;42.616;23.350;2023-01-29T01:26:07;61853.00;;;-1.46;100.00
6899;BME280;3488;42.616;23.350;2023-01-29T01:28:35;61870.97;;;-1.26;100.00
6899;BME280;3488;42.616;23.350;2023-01-29T01:31:09;61869.44;;;-1.27;100.00
6899;BME280;3488;42.616;23.350;2023-01-29T01:33:36;61861.81;;;-1.32;100.00
6899;BME280;3488;42.616;23.350;2023-01-29T01:36:04;61881.72;;;-1.15;100.00
6899;BME280;3488;42.616;23.350;2023-01-29T01:38:34;61872.50;;;-1.24;100.00
6899;BME280;3488;42.616;23.350;2023-01-29T01:41:02;61868.41;;;-1.28;100.00
6899;BME280;3488;42.616;23.350;2023-01-29T01:43:47;61880.19;;;-1.17;100.00
6899;BME280;3488;42.616;23.350;2023-01-29T01:46:15;61870.38;;;-1.29;100.00
6899;BME280;3488;42.616;23.350;2023-01-29T01:48:43;61839.34;;;-1.52;100.00
6899;BME280;3488;42.616;23.350;2023-01-29T01:51:12;61874.53;;;-1.22;100.00
6899;BME280;3488;42.616;23.350;2023-01-29T01:53:44;61874.41;;;-1.27;100.00
6899;BME280;3488;42.616;23.350;2023-01-29T01:56:18;61868.41;;;-1.28;100.00
6899;BME280;3488;42.616;23.350;2023-01-29T01:58:50;61849.97;;;-1.46;100.00
6899;BME280;3488;42.616;23.350;2023-01-29T02:01:19;61882.28;;;-1.12;100.00
6899;BME280;3488;42.616;23.350;2023-01-29T02:03:56;61894.44;;;-1.05;100.00
6899;BME280;3488;42.616;23.350;2023-01-29T02:06:43;61890.97;;;-1.03;100.00
6899;BME280;3488;42.616;23.350;2023-01-29T02:09:31;61873.06;;;-1.21;100.00
6899;BME280;3488;42.616;23.350;2023-01-29T02:12:01;61891.50;;;-1.03;100.00
6899;BME280;3488;42.616;23.350;2023-01-29T02:14:29;61894.00;;;-1.03;100.00
6899;BME280;3488;42.616;23.350;2023-01-29T02:16:59;61868.41;;;-1.28;100.00
6899;BME280;3488;42.616;23.350;2023-01-29T02:19:35;61871.06;;;-1.21;100.00
6899;BME280;3488;42.616;23.350;2023-01-29T02:22:40;61879.47;;;-1.25;100.00
6899;BME280;3488;42.616;23.350;2023-01-29T02:25:27;61852.09;;;-1.42;100.00
6899;BME280;3488;42.616;23.350;2023-01-29T02:28:29;61852.03;;;-1.44;100.00
6899;BME280;3488;42.616;23.350;2023-01-29T02:31:05;61849.53;;;-1.44;100.00
6899;BME280;3488;42.616;23.350;2023-01-29T02:33:40;61858.19;;;-1.38;100.00
6899;BME280;3488;42.616;23.350;2023-01-29T02:36:17;61861.19;;;-1.38;100.00
6899;BME280;3488;42.616;23.350;2023-01-29T02:38:52;61867.31;;;-1.32;100.00
6899;BME280;3488;42.616;23.350;2023-01-29T02:41:25;61867.38;;;-1.29;100.00
6899;BME280;3488;42.616;23.350;2023-01-29T02:43:59;61844.94;;;-1.49;100.00
6899;BME280;3488;42.616;23.350;2023-01-29T02:46:34;61858.22;;;-1.36;100.00
6899;BME280;3488;42.616;23.350;2023-01-29T02:49:09;61853.03;;;-1.43;100.00
6899;BME280;3488;42.616;23.350;2023-01-29T02:51:42;61843.91;;;-1.50;100.00
6899;BME280;3488;42.616;23.350;2023-01-29T02:54:15;61840.41;;;-1.51;100.00
6899;BME280;3488;42.616;23.350;2023-01-29T02:56:47;61833.59;;;-1.62;100.00
6899;BME280;3488;42.616;23.350;2023-01-29T02:59:21;61833.69;;;-1.60;100.00
6899;BME280;3488;42.616;23.350;2023-01-29T03:01:53;61850.56;;;-1.43;100.00
6899;BME280;3488;42.616;23.350;2023-01-29T03:04:25;61865.91;;;-1.28;100.00
6899;BME280;3488;42.616;23.350;2023-01-29T03:06:56;61869.53;;;-1.22;100.00
6899;BME280;3488;42.616;23.350;2023-01-29T03:09:28;61879.22;;;-1.15;100.00
6899;BME280;3488;42.616;23.350;2023-01-29T03:12:03;61883.25;;;-1.13;100.00
6899;BME280;3488;42.616;23.350;2023-01-29T03:14:45;61888.44;;;-1.06;100.00
6899;BME280;3488;42.616;23.350;2023-01-29T03:17:34;61897.06;;;-1.00;100.00
6899;BME280;3488;42.616;23.350;2023-01-29T03:20:07;61896.59;;;-0.98;100.00
6899;BME280;3488;42.616;23.350;2023-01-29T03:22:37;61898.09;;;-0.99;100.00
6899;BME280;3488;42.616;23.350;2023-01-29T03:25:07;61892.47;;;-1.04;100.00
6899;BME280;3488;42.616;23.350;2023-01-29T03:27:55;61899.19;;;-0.95;100.00
6899;BME280;3488;42.616;23.350;2023-01-29T03:30:46;61897.13;;;-0.97;100.00
6899;BME280;3488;42.616;23.350;2023-01-29T03:33:37;61904.75;;;-0.92;100.00
6899;BME280;3488;42.616;23.350;2023-01-29T03:36:09;61918.00;;;-0.82;100.00
6899;BME280;3488;42.616;23.350;2023-01-29T03:38:38;61915.53;;;-0.79;100.00
6899;BME280;3488;42.616;23.350;2023-01-29T03:41:08;61920.63;;;-0.77;100.00
6899;BME280;3488;42.616;23.350;2023-01-29T03:43:41;61921.06;;;-0.79;100.00
6899;BME280;3488;42.616;23.350;2023-01-29T03:46:16;61924.25;;;-0.71;100.00
6899;BME280;3488;42.616;23.350;2023-01-29T03:48:51;61930.84;;;-0.67;100.00
6899;BME280;3488;42.616;23.350;2023-01-29T03:51:24;61923.19;;;-0.74;100.00
6899;BME280;3488;42.616;23.350;2023-01-29T03:53:57;61926.25;;;-0.71;100.00
6899;BME280;3488;42.616;23.350;2023-01-29T03:56:38;61926.28;;;-0.69;100.00
6899;BME280;3488;42.616;23.350;2023-01-29T03:59:17;61932.34;;;-0.68;100.00
6899;BME280;3488;42.616;23.350;2023-01-29T04:01:52;61924.19;;;-0.73;100.00
6899;BME280;3488;42.616;23.350;2023-01-29T04:04:23;61926.19;;;-0.74;100.00
6899;BME280;3488;42.616;23.350;2023-01-29T04:06:55;61911.47;;;-0.83;100.00
6899;BME280;3488;42.616;23.350;2023-01-29T04:09:28;61926.69;;;-0.73;100.00
6899;BME280;3488;42.616;23.350;2023-01-29T04:12:01;61915.44;;;-0.84;100.00
6899;BME280;3488;42.616;23.350;2023-01-29T04:14:28;61919.66;;;-0.75;100.00
6899;BME280;3488;42.616;23.350;2023-01-29T04:17:01;61917.09;;;-0.78;100.00
6899;BME280;3488;42.616;23.350;2023-01-29T04:19:29;61920.69;;;-0.74;100.00
6899;BME280;3488;42.616;23.350;2023-01-29T04:22:01;61922.66;;;-0.75;100.00
6899;BME280;3488;42.616;23.350;2023-01-29T04:24:29;61915.03;;;-0.80;100.00
6899;BME280;3488;42.616;23.350;2023-01-29T04:27:07;61918.03;;;-0.79;100.00
6899;BME280;3488;42.616;23.350;2023-01-29T04:29:46;61912.94;;;-0.84;100.00
6899;BME280;3488;42.616;23.350;2023-01-29T04:32:21;61914.94;;;-0.85;100.00
6899;BME280;3488;42.616;23.350;2023-01-29T04:34:59;61922.66;;;-0.75;100.00
6899;BME280;3488;42.616;23.350;2023-01-29T04:37:34;61927.72;;;-0.72;100.00
6899;BME280;3488;42.616;23.350;2023-01-29T04:40:13;61916.13;;;-0.76;100.00
6899;BME280;3488;42.616;23.350;2023-01-29T04:42:47;61917.03;;;-0.80;100.00
6899;BME280;3488;42.616;23.350;2023-01-29T04:45:20;61916.00;;;-0.81;100.00
6899;BME280;3488;42.616;23.350;2023-01-29T04:47:57;61911.00;;;-0.81;100.00
6899;BME280;3488;42.616;23.350;2023-01-29T04:50:28;61910.91;;;-0.86;100.00
6899;BME280;3488;42.616;23.350;2023-01-29T04:53:04;61918.03;;;-0.79;100.00
6899;BME280;3488;42.616;23.350;2023-01-29T04:55:38;61906.78;;;-0.90;100.00
6899;BME280;3488;42.616;23.350;2023-01-29T04:58:10;61912.44;;;-0.85;100.00
6899;BME280;3488;42.616;23.350;2023-01-29T05:00:41;61905.81;;;-0.89;100.00
6899;BME280;3488;42.616;23.350;2023-01-29T05:03:11;61906.78;;;-0.90;100.00
6899;BME280;3488;42.616;23.350;2023-01-29T05:05:43;61908.41;;;-0.86;100.00
6899;BME280;3488;42.616;23.350;2023-01-29T05:08:13;61914.97;;;-0.82;100.00
6899;BME280;3488;42.616;23.350;2023-01-29T05:10:41;61909.34;;;-0.88;100.00
6899;BME280;3488;42.616;23.350;2023-01-29T05:13:11;61915.50;;;-0.82;100.00
6899;BME280;3488;42.616;23.350;2023-01-29T05:15:41;61905.38;;;-0.87;100.00
6899;BME280;3488;42.616;23.350;2023-01-29T05:18:11;61894.31;;;-1.10;100.00
6899;BME280;3488;42.616;23.350;2023-01-29T05:20:39;61903.66;;;-0.96;100.00
6899;BME280;3488;42.616;23.350;2023-01-29T05:23:08;61910.91;;;-0.86;100.00
6899;BME280;3488;42.616;23.350;2023-01-29T05:25:36;61911.28;;;-0.91;100.00
6899;BME280;3488;42.616;23.350;2023-01-29T05:28:03;61907.31;;;-0.90;100.00
6899;BME280;3488;42.616;23.350;2023-01-29T05:30:31;61917.03;;;-0.80;100.00
6899;BME280;3488;42.616;23.350;2023-01-29T05:32:59;61902.75;;;-0.92;100.00
6899;BME280;3488;42.616;23.350;2023-01-29T05:35:27;61888.88;;;-1.08;100.00
6899;BME280;3488;42.616;23.350;2023-01-29T05:37:55;61904.16;;;-0.95;100.00
6899;BME280;3488;42.616;23.350;2023-01-29T05:40:23;61894.06;;;-1.00;100.00
6899;BME280;3488;42.616;23.350;2023-01-29T05:42:50;61876.06;;;-1.21;100.00
6899;BME280;3488;42.616;23.350;2023-01-29T05:45:17;61885.84;;;-1.08;100.00
6899;BME280;3488;42.616;23.350;2023-01-29T05:47:44;61903.72;;;-0.93;100.00
6899;BME280;3488;42.616;23.350;2023-01-29T05:50:12;61900.16;;;-0.97;100.00
6899;BME280;3488;42.616;23.350;2023-01-29T05:52:41;61904.75;;;-0.92;100.00
6899;BME280;3488;42.616;23.350;2023-01-29T05:55:09;61899.22;;;-0.93;100.00
6899;BME280;3488;42.616;23.350;2023-01-29T05:57:38;61912.44;;;-0.85;100.00
6899;BME280;3488;42.616;23.350;2023-01-29T06:00:07;61904.75;;;-0.92;100.00
6899;BME280;3488;42.616;23.350;2023-01-29T06:02:34;61920.03;;;-0.80;100.00
6899;BME280;3488;42.616;23.350;2023-01-29T06:05:01;61918.97;;;-0.83;100.00
6899;BME280;3488;42.616;23.350;2023-01-29T06:07:28;61913.50;;;-0.81;100.00
6899;BME280;3488;42.616;23.350;2023-01-29T06:09:56;61879.72;;;-1.14;100.00
6899;BME280;3488;42.616;23.350;2023-01-29T06:12:23;61911.84;;;-0.88;100.00
6899;BME280;3488;42.616;23.350;2023-01-29T06:14:51;61917.47;;;-0.82;100.00
6899;BME280;3488;42.616;23.350;2023-01-29T06:17:19;61890.03;;;-1.02;100.00
6899;BME280;3488;42.616;23.350;2023-01-29T06:19:46;61906.28;;;-0.91;100.00
6899;BME280;3488;42.616;23.350;2023-01-29T06:22:13;61924.72;;;-0.73;100.00
6899;BME280;3488;42.616;23.350;2023-01-29T06:24:40;61913.50;;;-0.81;100.00
6899;BME280;3488;42.616;23.350;2023-01-29T06:27:09;61908.31;;;-0.89;100.00
6899;BME280;3488;42.616;23.350;2023-01-29T06:29:36;61902.25;;;-0.92;100.00
6899;BME280;3488;42.616;23.350;2023-01-29T06:32:04;61927.22;;;-0.73;100.00
6899;BME280;3488;42.616;23.350;2023-01-29T06:34:31;61911.91;;;-0.85;100.00
6899;BME280;3488;42.616;23.350;2023-01-29T06:36:58;61913.50;;;-0.81;100.00
6899;BME280;3488;42.616;23.350;2023-01-29T06:39:25;61899.63;;;-0.97;100.00
6899;BME280;3488;42.616;23.350;2023-01-29T06:41:52;61898.66;;;-0.96;100.00
6899;BME280;3488;42.616;23.350;2023-01-29T06:44:21;61900.72;;;-0.94;100.00
6899;BME280;3488;42.616;23.350;2023-01-29T06:46:49;61915.44;;;-0.84;100.00
6899;BME280;3488;42.616;23.350;2023-01-29T06:49:16;61925.16;;;-0.75;100.00
6899;BME280;3488;42.616;23.350;2023-01-29T06:51:43;61909.47;;;-0.83;100.00
6899;BME280;3488;42.616;23.350;2023-01-29T06:54:10;61929.50;;;-0.61;100.00
6899;BME280;3488;42.616;23.350;2023-01-29T06:56:38;61946.16;;;-0.54;100.00
6899;BME280;3488;42.616;23.350;2023-01-29T06:59:04;61934.84;;;-0.68;100.00
6899;BME280;3488;42.616;23.350;2023-01-29T07:01:33;61906.34;;;-0.88;100.00
6899;BME280;3488;42.616;23.350;2023-01-29T07:04:00;61922.59;;;-0.77;100.00
6899;BME280;3488;42.616;23.350;2023-01-29T07:06:28;61899.09;;;-0.98;100.00
6899;BME280;3488;42.616;23.350;2023-01-29T07:08:55;61912.44;;;-0.85;100.00
6899;BME280;3488;42.616;23.350;2023-01-29T07:11:22;61940.59;;;-0.57;100.00
6899;BME280;3488;42.616;23.350;2023-01-29T07:13:49;61943.09;;;-0.57;100.00
6899;BME280;3488;42.616;23.350;2023-01-29T07:16:16;61917.59;;;-0.77;100.00
6899;BME280;3488;42.616;23.350;2023-01-29T07:18:45;61925.69;;;-0.74;100.00
6899;BME280;3488;42.616;23.350;2023-01-29T07:21:12;61933.78;;;-0.69;100.00
6899;BME280;3488;42.616;23.350;2023-01-29T07:23:39;61954.34;;;-0.46;100.00
6899;BME280;3488;42.616;23.350;2023-01-29T07:26:07;61943.69;;;-0.52;100.00
6899;BME280;3488;42.616;23.350;2023-01-29T07:28:35;61966.31;;;-0.27;100.00
6899;BME280;3488;42.616;23.350;2023-01-29T07:31:04;61962.59;;;-0.36;100.00
6899;BME280;3488;42.616;23.350;2023-01-29T07:33:31;61981.03;;;-0.18;100.00
6899;BME280;3488;42.616;23.350;2023-01-29T07:36:00;61985.09;;;-0.16;100.00
6899;BME280;3488;42.616;23.350;2023-01-29T07:38:27;61991.22;;;-0.10;100.00
6899;BME280;3488;42.616;23.350;2023-01-29T07:40:54;62008.59;;;0.05;100.00
6899;BME280;3488;42.616;23.350;2023-01-29T07:43:21;61994.88;;;-0.04;100.00
6899;BME280;3488;42.616;23.350;2023-01-29T07:45:49;61998.91;;;-0.03;100.00
6899;BME280;3488;42.616;23.350;2023-01-29T07:48:16;61980.00;;;-0.19;100.00
6899;BME280;3488;42.616;23.350;2023-01-29T07:50:44;61995.91;;;-0.03;100.00
6899;BME280;3488;42.616;23.350;2023-01-29T07:53:13;62022.03;;;0.23;100.00
6899;BME280;3488;42.616;23.350;2023-01-29T07:55:43;62014.34;;;0.15;100.00
6899;BME280;3488;42.616;23.350;2023-01-29T07:58:11;62026.66;;;0.27;100.00
6899;BME280;3488;42.616;23.350;2023-01-29T08:00:38;62042.03;;;0.42;100.00
6899;BME280;3488;42.616;23.350;2023-01-29T08:03:08;62050.81;;;0.53;100.00
6899;BME280;3488;42.616;23.350;2023-01-29T08:05:36;62054.72;;;0.50;100.00
6899;BME280;3488;42.616;23.350;2023-01-29T08:08:04;62024.59;;;0.25;100.00
6899;BME280;3488;42.616;23.350;2023-01-29T08:10:33;62015.88;;;0.17;100.00
6899;BME280;3488;42.616;23.350;2023-01-29T08:13:01;62045.53;;;0.43;100.00
6899;BME280;3488;42.616;23.350;2023-01-29T08:15:29;61988.22;;;-0.11;100.00
6899;BME280;3488;42.616;23.350;2023-01-29T08:17:56;62009.22;;;0.10;100.00
6899;BME280;3488;42.616;23.350;2023-01-29T08:20:24;61958.03;;;-0.38;100.00
6899;BME280;3488;42.616;23.350;2023-01-29T08:22:58;61970.81;;;-0.28;100.00
6899;BME280;3488;42.616;23.350;2023-01-29T08:25:26;61968.75;;;-0.30;100.00
6899;BME280;3488;42.616;23.350;2023-01-29T08:27:55;61958.13;;;-0.35;100.00
6899;BME280;3488;42.616;23.350;2023-01-29T08:30:22;61967.22;;;-0.31;100.00
6899;BME280;3488;42.616;23.350;2023-01-29T08:32:49;61968.31;;;-0.28;100.00
6899;BME280;3488;42.616;23.350;2023-01-29T08:35:17;61972.97;;;-0.21;100.00
6899;BME280;3488;42.616;23.350;2023-01-29T08:37:51;61976.44;;;-0.22;100.00
6899;BME280;3488;42.616;23.350;2023-01-29T08:40:19;61983.53;;;-0.18;100.00
6899;BME280;3488;42.616;23.350;2023-01-29T08:42:46;61972.84;;;-0.26;100.00
6899;BME280;3488;42.616;23.350;2023-01-29T08:45:14;61967.72;;;-0.31;100.00
6899;BME280;3488;42.616;23.350;2023-01-29T08:47:45;61981.09;;;-0.15;100.00
6899;BME280;3488;42.616;23.350;2023-01-29T08:50:12;61987.25;;;-0.09;100.00
6899;BME280;3488;42.616;23.350;2023-01-29T08:52:40;61981.03;;;-0.18;100.00
6899;BME280;3488;42.616;23.350;2023-01-29T08:55:08;62011.28;;;0.12;100.00
6899;BME280;3488;42.616;23.350;2023-01-29T08:57:36;61996.00;;;0.02;100.00
6899;BME280;3488;42.616;23.350;2023-01-29T09:00:04;62028.22;;;0.31;100.00
6899;BME280;3488;42.616;23.350;2023-01-29T09:02:33;62029.72;;;0.30;100.00
6899;BME280;3488;42.616;23.350;2023-01-29T09:05:01;62014.91;;;0.18;100.00
6899;BME280;3488;42.616;23.350;2023-01-29T09:07:31;62021.56;;;0.25;100.00
6899;BME280;3488;42.616;23.350;2023-01-29T09:09:59;61988.66;;;-0.13;100.00
6899;BME280;3488;42.616;23.350;2023-01-29T09:12:26;62030.81;;;0.34;100.00
6899;BME280;3488;42.616;23.350;2023-01-29T09:14:54;62040.03;;;0.43;100.00
6899;BME280;3488;42.616;23.350;2023-01-29T09:17:21;62046.06;;;0.44;100.00
6899;BME280;3488;42.616;23.350;2023-01-29T09:19:50;62045.16;;;0.48;100.00
6899;BME280;3488;42.616;23.350;2023-01-29T09:22:17;62045.09;;;0.45;100.00
6899;BME280;3488;42.616;23.350;2023-01-29T09:24:49;61994.88;;;-0.04;100.00
6899;BME280;3488;42.616;23.350;2023-01-29T09:27:20;62027.63;;;0.26;100.00
6899;BME280;3488;42.616;23.350;2023-01-29T09:29:47;62021.41;;;0.17;100.00
6899;BME280;3488;42.616;23.350;2023-01-29T09:32:14;62021.47;;;0.20;100.00
6899;BME280;3488;42.616;23.350;2023-01-29T09:34:41;62007.16;;;0.08;100.00
6899;BME280;3488;42.616;23.350;2023-01-29T09:37:09;62026.56;;;0.25;100.00
6899;BME280;3488;42.616;23.350;2023-01-29T09:39:36;62032.78;;;0.33;100.00
6899;BME280;3488;42.616;23.350;2023-01-29T09:42:07;62048.63;;;0.46;100.00
6899;BME280;3488;42.616;23.350;2023-01-29T09:44:47;62035.94;;;0.39;100.00
6899;BME280;3488;42.616;23.350;2023-01-29T09:47:19;62029.78;;;0.33;100.00
6899;BME280;3488;42.616;23.350;2023-01-29T09:49:50;62000.56;;;0.04;100.00
6899;BME280;3488;42.616;23.350;2023-01-29T09:52:29;62019.91;;;0.18;100.00
6899;BME280;3488;42.616;23.350;2023-01-29T09:55:15;62004.03;;;0.03;100.00
6899;BME280;3488;42.616;23.350;2023-01-29T09:57:49;62049.19;;;0.49;100.00
6899;BME280;3488;42.616;23.350;2023-01-29T10:00:24;62054.78;;;0.52;100.00
6899;BME280;3488;42.616;23.350;2023-01-29T10:03:23;62065.19;;;0.70;100.00
6899;BME280;3488;42.616;23.350;2023-01-29T10:06:04;62057.34;;;0.55;100.00
6899;BME280;3488;42.616;23.350;2023-01-29T10:08:58;62050.72;;;0.51;100.00
6899;BME280;3488;42.616;23.350;2023-01-29T10:11:36;62063.47;;;0.61;100.00
6899;BME280;3488;42.616;23.350;2023-01-29T10:14:14;62070.09;;;0.65;100.00
6899;BME280;3488;42.616;23.350;2023-01-29T10:16:56;62034.28;;;0.32;100.00
6899;BME280;3488;42.616;23.350;2023-01-29T10:19:55;62050.81;;;0.53;100.00
6899;BME280;3488;42.616;23.350;2023-01-29T10:22:53;62042.53;;;0.43;100.00
6899;BME280;3488;42.616;23.350;2023-01-29T10:25:23;62034.38;;;0.37;100.00
6899;BME280;3488;42.616;23.350;2023-01-29T10:27:53;62050.16;;;0.48;100.00
6899;BME280;3488;42.616;23.350;2023-01-29T10:30:28;62043.03;;;0.43;100.00
6899;BME280;3488;42.616;23.350;2023-01-29T10:33:01;62065.03;;;0.62;100.00
6899;BME280;3488;42.616;23.350;2023-01-29T10:35:32;62054.31;;;0.54;100.00
6899;BME280;3488;42.616;23.350;2023-01-29T10:38:14;62052.78;;;0.53;100.00
6899;BME280;3488;42.616;23.350;2023-01-29T10:40:50;62051.81;;;0.54;100.00
6899;BME280;3488;42.616;23.350;2023-01-29T10:43:28;62012.19;;;0.08;100.00
6899;BME280;3488;42.616;23.350;2023-01-29T10:46:09;62011.72;;;0.10;100.00
6899;BME280;3488;42.616;23.350;2023-01-29T10:48:53;61968.69;;;-0.32;100.00
6899;BME280;3488;42.616;23.350;2023-01-29T10:51:40;61979.00;;;-0.20;100.00
6899;BME280;3488;42.616;23.350;2023-01-29T10:54:28;61964.13;;;-0.34;100.00
6899;BME280;3488;42.616;23.350;2023-01-29T10:57:10;62007.09;;;0.06;100.00
6899;BME280;3488;42.616;23.350;2023-01-29T10:59:51;62024.16;;;0.27;100.00
6899;BME280;3488;42.616;23.350;2023-01-29T11:02:22;62005.25;;;0.11;100.00
6899;BME280;3488;42.616;23.350;2023-01-29T11:04:50;62027.09;;;0.25;100.00
6899;BME280;3488;42.616;23.350;2023-01-29T11:07:20;62039.63;;;0.47;100.00
6899;BME280;3488;42.616;23.350;2023-01-29T11:09:54;62049.19;;;0.49;100.00
6899;BME280;3488;42.616;23.350;2023-01-29T11:12:26;62039.97;;;0.40;100.00
6899;BME280;3488;42.616;23.350;2023-01-29T11:15:11;62004.09;;;0.05;100.00
6899;BME280;3488;42.616;23.350;2023-01-29T11:18:07;62040.41;;;0.38;100.00
6899;BME280;3488;42.616;23.350;2023-01-29T11:20:38;62056.91;;;0.57;100.00
6899;BME280;3488;42.616;23.350;2023-01-29T11:23:24;62048.63;;;0.46;100.00
6899;BME280;3488;42.616;23.350;2023-01-29T11:25:53;62046.13;;;0.46;100.00
6899;BME280;3488;42.616;23.350;2023-01-29T11:28:40;62059.50;;;0.62;100.00
6899;BME280;3488;42.616;23.350;2023-01-29T11:31:19;62071.22;;;0.71;100.00
6899;BME280;3488;42.616;23.350;2023-01-29T11:33:49;62078.94;;;0.78;100.00
6899;BME280;3488;42.616;23.350;2023-01-29T11:36:28;62029.19;;;0.30;100.00
6899;BME280;3488;42.616;23.350;2023-01-29T11:39:12;62037.91;;;0.38;100.00
6899;BME280;3488;42.616;23.350;2023-01-29T11:41:42;62030.72;;;0.31;100.00
6899;BME280;3488;42.616;23.350;2023-01-29T11:44:26;62060.47;;;0.60;100.00
6899;BME280;3488;42.616;23.350;2023-01-29T11:47:15;62071.69;;;0.69;100.00
6899;BME280;3488;42.616;23.350;2023-01-29T11:49:45;62078.03;;;0.82;100.00
6899;BME280;3488;42.616;23.350;2023-01-29T11:52:15;62081.63;;;0.86;100.00
6899;BME280;3488;42.616;23.350;2023-01-29T11:54:46;62121.50;;;1.20;100.00
6899;BME280;3488;42.616;23.350;2023-01-29T11:57:30;62127.19;;;1.28;100.00
6899;BME280;3488;42.616;23.350;2023-01-29T12:00:03;62124.97;;;1.18;100.00
6899;BME280;3488;42.616;23.350;2023-01-29T12:02:35;62099.38;;;0.96;100.00
6899;BME280;3488;42.616;23.350;2023-01-29T12:05:05;62059.97;;;0.60;100.00
6899;BME280;3488;42.616;23.350;2023-01-29T12:07:40;62053.88;;;0.56;100.00
6899;BME280;3488;42.616;23.350;2023-01-29T12:10:29;62083.53;;;0.83;100.00
6899;BME280;3488;42.616;23.350;2023-01-29T12:13:04;62113.91;;;1.17;100.00
6899;BME280;3488;42.616;23.350;2023-01-29T12:15:32;62136.84;;;1.33;100.00
6899;BME280;3488;42.616;23.350;2023-01-29T12:18:11;62118.03;;;1.22;100.00
6899;BME280;3488;42.616;23.350;2023-01-29T12:20:42;62062.50;;;0.62;100.00
6899;BME280;3488;42.616;23.350;2023-01-29T12:23:23;62027.66;;;0.28;100.00
6899;BME280;3488;42.616;23.350;2023-01-29T12:25:59;61996.94;;;-0.02;100.00
6899;BME280;3488;42.616;23.350;2023-01-29T12:28:36;62029.72;;;0.30;100.00
6899;BME280;3488;42.616;23.350;2023-01-29T12:31:23;62030.16;;;0.28;100.00
6899;BME280;3488;42.616;23.350;2023-01-29T12:34:00;62045.53;;;0.43;100.00
6899;BME280;3488;42.616;23.350;2023-01-29T12:36:33;62072.84;;;0.75;100.00
6899;BME280;3488;42.616;23.350;2023-01-29T12:39:02;62077.91;;;0.77;100.00
6899;BME280;3488;42.616;23.350;2023-01-29T12:41:35;62026.66;;;0.27;100.00
6899;BME280;3488;42.616;23.350;2023-01-29T12:44:10;62047.59;;;0.45;100.00
6899;BME280;3488;42.616;23.350;2023-01-29T12:46:43;62063.00;;;0.60;100.00
6899;BME280;3488;42.616;23.350;2023-01-29T12:49:18;62039.50;;;0.42;100.00
6899;BME280;3488;42.616;23.350;2023-01-29T12:51:52;62030.25;;;0.31;100.00
6899;BME280;3488;42.616;23.350;2023-01-29T12:54:27;62042.03;;;0.42;100.00
6899;BME280;3488;42.616;23.350;2023-01-29T12:56:59;62078.41;;;0.78;100.00
6899;BME280;3488;42.616;23.350;2023-01-29T12:59:31;62085.94;;;0.78;100.00
6899;BME280;3488;42.616;23.350;2023-01-29T13:02:13;62032.22;;;0.30;100.00
6899;BME280;3488;42.616;23.350;2023-01-29T13:04:53;62006.59;;;0.05;100.00
6899;BME280;3488;42.616;23.350;2023-01-29T13:07:25;62019.53;;;0.23;100.00
6899;BME280;3488;42.616;23.350;2023-01-29T13:09:58;62045.59;;;0.46;100.00
6899;BME280;3488;42.616;23.350;2023-01-29T13:12:30;62073.25;;;0.70;100.00
6899;BME280;3488;42.616;23.350;2023-01-29T13:15:02;62092.72;;;0.89;100.00
6899;BME280;3488;42.616;23.350;2023-01-29T13:17:36;62091.31;;;0.93;100.00
6899;BME280;3488;42.616;23.350;2023-01-29T13:20:11;62116.38;;;1.15;100.00
6899;BME280;3488;42.616;23.350;2023-01-29T13:22:43;62062.00;;;0.62;100.00
6899;BME280;3488;42.616;23.350;2023-01-29T13:25:16;62066.06;;;0.63;100.00
6899;BME280;3488;42.616;23.350;2023-01-29T13:27:44;62072.78;;;0.72;100.00
6899;BME280;3488;42.616;23.350;2023-01-29T13:30:24;62042.03;;;0.42;100.00
6899;BME280;3488;42.616;23.350;2023-01-29T13:32:53;62027.66;;;0.28;100.00